Time;durP1;ratioP1;P1;durP2;ratioP2;P2;SDS_P1;SDS_P2;PMS_P1;PMS_P2;Temp;Humidity;BMP_temperature;BMP_pressure;BME280_temperature;BME280_humidity;BME280_pressure;Samples;Min_cycle;Max_cycle;Signal;HPM_P1;HPM_P2
2021/01/27 00:00:24;;;;;;;17.90;12.43;;;0.00;99.90;;;0.54;100.00;100292.63;5094380;28;20224;-76
2021/01/27 00:02:51;;;;;;;17.73;13.70;;;-0.10;99.90;;;0.64;100.00;100296.03;5093338;28;20215;-77
2021/01/27 00:05:23;;;;;;;17.37;13.40;;;-0.20;99.90;;;0.91;100.00;100298.56;5091967;28;20219;-75
2021/01/27 00:07:50;;;;;;;17.83;12.97;;;-0.10;99.90;;;0.98;100.00;100297.75;5091806;28;20185;-74
2021/01/27 00:10:18;;;;;;;15.03;10.77;;;0.00;99.90;;;0.63;100.00;100299.63;5091727;28;20234;-75
2021/01/27 00:12:45;;;;;;;18.07;13.13;;;-0.10;99.90;;;0.46;100.00;100297.84;5091818;28;20212;-75
2021/01/27 00:15:18;;;;;;;19.40;14.03;;;-0.20;99.90;;;0.57;100.00;100302.91;5091516;28;20202;-74
2021/01/27 00:17:46;;;;;;;13.87;10.20;;;-0.30;99.90;;;0.43;100.00;100291.03;5091701;28;20184;-78
2021/01/27 00:20:16;;;;;;;15.90;11.20;;;-0.30;99.90;;;0.50;100.00;100291.25;5092023;28;20285;-77
2021/01/27 00:22:45;;;;;;;15.73;11.20;;;-0.30;99.90;;;0.86;100.00;100295.53;5091698;28;20223;-78
2021/01/27 00:25:15;;;;;;;16.13;10.73;;;-0.20;99.90;;;0.86;100.00;100295.53;5091482;28;20704;-76
2021/01/27 00:27:42;;;;;;;14.37;10.47;;;-0.10;99.90;;;0.91;100.00;100285.31;5091653;28;20252;-72
2021/01/27 00:30:12;;;;;;;13.87;9.83;;;0.00;99.90;;;1.14;100.00;100291.75;5091777;28;20240;-77
2021/01/27 00:32:40;;;;;;;13.40;10.10;;;0.10;99.90;;;0.97;100.00;100284.66;5091641;28;20551;-76
2021/01/27 00:35:09;;;;;;;13.23;10.13;;;0.10;99.90;;;1.05;100.00;100285.56;5091787;28;20202;-75
2021/01/27 00:37:37;;;;;;;14.07;10.33;;;0.10;99.90;;;1.35;99.02;100281.59;5091358;28;20242;-78
2021/01/27 00:40:07;;;;;;;12.87;9.50;;;0.30;99.90;;;1.39;98.20;100272.31;5090977;28;20201;-78
2021/01/27 00:42:35;;;;;;;12.20;9.17;;;0.40;99.90;;;1.08;98.90;100271.97;5091656;28;20707;-79
2021/01/27 00:45:03;;;;;;;14.13;9.33;;;0.30;99.90;;;1.44;98.33;100271.88;5091520;28;20583;-70
2021/01/27 00:47:30;;;;;;;14.60;9.87;;;0.50;99.90;;;1.26;98.64;100266.63;5091689;28;20239;-73
2021/01/27 00:49:58;;;;;;;14.80;10.70;;;0.40;99.90;;;1.21;99.11;100261.81;5091828;28;20214;-69
2021/01/27 00:52:25;;;;;;;15.47;11.33;;;0.40;99.90;;;1.22;98.00;100262.59;5091161;28;20207;-70
2021/01/27 00:54:52;;;;;;;15.13;10.30;;;0.40;99.90;;;1.47;98.10;100260.94;5091337;28;20292;-69
2021/01/27 00:57:20;;;;;;;15.00;10.50;;;0.50;99.90;;;1.45;96.97;100255.78;5091582;28;20718;-71
2021/01/27 00:59:47;;;;;;;13.90;9.50;;;0.50;99.90;;;1.36;97.63;100258.53;5091402;28;20210;-69
2021/01/27 01:02:15;;;;;;;13.90;9.77;;;0.50;99.90;;;1.26;98.82;100256.00;5091809;28;20237;-71
2021/01/27 01:04:42;;;;;;;12.17;9.03;;;0.50;99.90;;;1.35;97.26;100265.69;5091064;28;20219;-74
2021/01/27 01:07:09;;;;;;;14.07;9.93;;;0.50;99.90;;;1.18;98.52;100263.94;5091463;28;20269;-70
2021/01/27 01:09:37;;;;;;;12.30;9.37;;;0.40;99.90;;;1.30;97.98;100261.84;5091067;28;20232;-70
2021/01/27 01:12:05;;;;;;;15.63;10.03;;;0.40;99.90;;;0.91;98.45;100270.19;5091057;28;20604;-70
2021/01/27 01:14:33;;;;;;;13.77;10.23;;;0.40;99.90;;;1.12;99.09;100264.53;5090920;28;20237;-71
2021/01/27 01:17:00;;;;;;;14.70;10.07;;;0.30;99.90;;;0.96;99.15;100264.47;5091212;28;20289;-70
2021/01/27 01:19:28;;;;;;;15.17;10.80;;;0.20;99.90;;;0.60;100.00;100273.44;5091208;28;20266;-71
2021/01/27 01:21:55;;;;;;;16.87;11.40;;;0.00;99.90;;;0.76;100.00;100270.94;5090976;28;20243;-73
2021/01/27 01:24:22;;;;;;;15.47;11.07;;;0.00;99.90;;;0.62;100.00;100263.53;5090724;28;20222;-73
2021/01/27 01:26:49;;;;;;;18.10;12.33;;;-0.10;99.90;;;0.74;100.00;100264.97;5090663;28;20209;-71
2021/01/27 01:29:19;;;;;;;16.70;11.33;;;-0.10;99.90;;;0.83;100.00;100266.69;5090878;28;20230;-73
2021/01/27 01:31:48;;;;;;;17.43;11.40;;;-0.10;99.90;;;0.69;100.00;100272.53;5094494;28;20280;-70
2021/01/27 01:34:15;;;;;;;18.47;12.37;;;-0.20;99.90;;;0.80;100.00;100259.03;5094842;28;20213;-71
2021/01/27 01:36:42;;;;;;;18.47;11.00;;;-0.10;99.90;;;0.68;100.00;100258.44;5094468;28;20237;-72
2021/01/27 01:39:09;;;;;;;13.93;9.60;;;-0.20;99.90;;;0.89;100.00;100258.94;5094394;28;20231;-71
2021/01/27 01:41:37;;;;;;;13.73;9.70;;;-0.10;99.90;;;0.55;100.00;100257.19;5094781;28;20204;-70
2021/01/27 01:44:04;;;;;;;14.53;9.93;;;-0.10;99.90;;;0.43;100.00;100255.75;5094307;28;20294;-71
2021/01/27 01:46:31;;;;;;;14.57;10.10;;;-0.30;99.90;;;0.62;100.00;100258.25;5094244;28;20689;-71
2021/01/27 01:49:04;;;;;;;15.13;10.47;;;-0.30;99.90;;;0.55;100.00;100254.53;5094556;28;20253;-71
2021/01/27 01:51:38;;;;;;;13.87;10.10;;;-0.30;99.90;;;0.44;100.00;100257.44;5094386;28;20191;-74
2021/01/27 01:54:14;;;;;;;15.30;10.67;;;-0.30;99.90;;;0.64;100.00;100257.13;5093902;28;20714;-71
2021/01/27 01:56:50;;;;;;;12.53;8.97;;;-0.30;99.90;;;0.54;100.00;100255.53;5094362;28;20284;-72
2021/01/27 01:59:17;;;;;;;13.13;9.07;;;-0.30;99.90;;;0.45;100.00;100253.78;5094065;28;20275;-73
2021/01/27 02:01:51;;;;;;;12.10;8.87;;;-0.40;99.90;;;0.43;100.00;100258.41;5094217;28;20201;-74
2021/01/27 02:04:20;;;;;;;14.77;8.77;;;-0.40;99.90;;;0.46;100.00;100255.44;5094121;28;20190;-71
2021/01/27 02:06:48;;;;;;;13.60;8.30;;;-0.50;99.90;;;0.48;100.00;100253.47;5094130;28;20206;-71
2021/01/27 02:09:15;;;;;;;13.17;8.63;;;-0.40;99.90;;;0.22;100.00;100252.59;5093619;28;20251;-71
2021/01/27 02:12:20;;;;;;;12.50;9.00;;;-0.50;99.90;;;0.11;100.00;100251.00;5093967;28;20663;-70
2021/01/27 02:15:15;;;;;;;14.30;11.13;;;-0.50;99.90;;;0.31;100.00;100243.72;5093746;28;20392;-72
2021/01/27 02:17:54;;;;;;;13.37;9.43;;;-0.60;99.90;;;0.08;100.00;100242.53;5094767;28;20252;-74
2021/01/27 02:21:12;;;;;;;17.13;12.57;;;-0.70;99.90;;;0.00;100.00;100241.47;5096613;28;20191;-73
2021/01/27 02:24:39;;;;;;;11.90;8.97;;;-0.70;99.90;;;0.22;100.00;100244.66;5093279;28;20601;-72
2021/01/27 02:27:11;;;;;;;14.80;10.53;;;-0.80;99.90;;;0.21;100.00;100242.97;5051083;28;20284;-71
2021/01/27 02:30:12;;;;;;;14.37;9.90;;;-0.70;99.90;;;0.00;100.00;100236.16;5050747;28;20217;-73
2021/01/27 02:33:21;;;;;;;13.30;9.30;;;-0.70;99.90;;;-0.17;100.00;100238.81;5085917;28;20626;-72
2021/01/27 02:35:55;;;;;;;13.03;9.50;;;-0.90;99.90;;;-0.14;100.00;100242.00;5093582;28;20277;-74
2021/01/27 02:38:31;;;;;;;13.17;9.40;;;-1.00;99.90;;;0.13;100.00;100243.75;5093354;28;20183;-72
2021/01/27 02:41:06;;;;;;;16.43;10.63;;;-0.90;99.90;;;0.07;100.00;100239.03;5093238;28;20239;-75
2021/01/27 02:43:37;;;;;;;14.10;10.20;;;-0.80;99.90;;;-0.15;100.00;100242.97;5093682;28;20222;-72
2021/01/27 02:46:13;;;;;;;14.03;9.33;;;-0.80;99.90;;;0.08;100.00;100243.38;5093110;28;20683;-73
2021/01/27 02:48:49;;;;;;;13.93;10.10;;;-0.80;99.90;;;0.44;100.00;100237.06;5093434;28;20642;-72
2021/01/27 02:51:23;;;;;;;13.57;9.37;;;-0.60;99.90;;;0.32;100.00;100242.75;5093032;28;20215;-73
2021/01/27 02:53:58;;;;;;;13.87;9.23;;;-0.60;99.90;;;0.55;100.00;100233.34;5093308;28;20217;-73
2021/01/27 02:56:33;;;;;;;13.40;9.90;;;-0.50;99.90;;;0.30;100.00;100234.13;5093217;28;20273;-72
2021/01/27 02:59:07;;;;;;;13.93;9.17;;;-0.40;99.90;;;0.29;100.00;100235.94;5092892;28;20567;-73
2021/01/27 03:01:43;;;;;;;12.17;8.63;;;-0.40;99.90;;;0.73;100.00;100234.13;5093104;28;20209;-73
2021/01/27 03:04:18;;;;;;;13.63;9.70;;;-0.30;99.90;;;0.45;100.00;100233.44;5092951;28;20648;-72
2021/01/27 03:06:51;;;;;;;15.43;10.90;;;-0.30;99.90;;;0.41;100.00;100239.16;5093055;28;20247;-70
2021/01/27 03:09:28;;;;;;;16.20;11.83;;;-0.30;99.90;;;0.50;100.00;100227.66;5092689;28;20190;-70
2021/01/27 03:11:55;;;;;;;15.90;11.60;;;-0.40;99.90;;;0.99;100.00;100227.00;5093048;28;20191;-74
2021/01/27 03:14:22;;;;;;;17.07;12.07;;;-0.20;99.90;;;0.85;99.84;100228.41;5092718;28;20200;-75
2021/01/27 03:17:00;;;;;;;15.57;11.90;;;-0.10;99.90;;;0.64;100.00;100229.78;5092511;28;20666;-69
2021/01/27 03:19:38;;;;;;;17.33;13.10;;;-0.10;99.90;;;1.25;98.94;100219.88;5092993;28;20285;-72
2021/01/27 03:22:15;;;;;;;17.40;11.63;;;0.00;99.90;;;1.38;97.72;100220.25;5092290;28;20624;-73
2021/01/27 03:24:52;;;;;;;14.87;10.30;;;0.20;99.90;;;1.23;98.12;100214.69;5092476;28;20218;-73
2021/01/27 03:27:27;;;;;;;17.33;11.63;;;0.20;99.90;;;0.99;99.74;100217.25;5092867;28;20196;-73
2021/01/27 03:29:58;;;;;;;15.17;10.80;;;0.10;99.90;;;0.73;100.00;100223.53;5092467;28;20662;-70
2021/01/27 03:32:41;;;;;;;17.20;11.37;;;0.10;99.90;;;0.61;100.00;100217.66;5092754;28;20212;-72
2021/01/27 03:35:16;;;;;;;17.47;11.27;;;-0.10;99.90;;;0.65;100.00;100218.16;5092429;28;20279;-73
2021/01/27 03:37:51;;;;;;;17.37;12.03;;;-0.20;99.90;;;0.55;100.00;100218.28;5092642;28;20184;-74
2021/01/27 03:40:22;;;;;;;15.67;10.73;;;-0.20;99.90;;;0.92;100.00;100210.06;5092549;28;20275;-74
2021/01/27 03:43:01;;;;;;;16.70;10.93;;;-0.10;99.90;;;0.98;100.00;100207.63;5092777;28;20243;-74
2021/01/27 03:45:35;;;;;;;15.17;9.90;;;0.00;99.90;;;0.74;100.00;100204.00;5092362;28;20370;-74
2021/01/27 03:48:14;;;;;;;14.83;9.80;;;-0.10;99.90;;;0.43;100.00;100213.38;5092371;28;20644;-70
2021/01/27 03:50:43;;;;;;;18.50;11.43;;;-0.20;99.90;;;0.47;100.00;100212.09;5092148;28;20214;-71
2021/01/27 03:53:18;;;;;;;14.53;10.10;;;-0.30;99.90;;;0.75;100.00;100214.44;5091582;28;20630;-71
2021/01/27 03:55:56;;;;;;;18.77;12.30;;;-0.20;99.90;;;0.98;100.00;100218.22;5092218;28;20222;-70
2021/01/27 03:58:32;;;;;;;15.93;11.90;;;-0.10;99.90;;;1.00;100.00;100218.06;5092091;28;20752;-70
2021/01/27 04:01:06;;;;;;;19.70;13.30;;;0.00;99.90;;;0.85;100.00;100225.78;5092049;28;20198;-72
2021/01/27 04:03:34;;;;;;;20.03;12.60;;;0.00;99.90;;;0.92;100.00;100213.56;5092112;28;20189;-74
2021/01/27 04:06:02;;;;;;;20.97;13.57;;;0.00;99.90;;;1.00;100.00;100215.41;5091758;28;20246;-72
2021/01/27 04:08:30;;;;;;;20.30;13.43;;;0.10;99.90;;;0.96;100.00;100212.25;5091538;28;20206;-73
2021/01/27 04:10:59;;;;;;;19.93;14.10;;;0.10;99.90;;;1.29;100.00;100212.44;5092114;28;20256;-74
2021/01/27 04:13:27;;;;;;;23.30;14.73;;;0.20;99.90;;;1.19;100.00;100212.53;5091559;28;20601;-69
2021/01/27 04:15:54;;;;;;;22.47;14.00;;;0.30;99.90;;;1.41;100.00;100213.78;5091541;28;20211;-71
2021/01/27 04:18:22;;;;;;;20.60;12.87;;;0.40;99.90;;;1.59;100.00;100210.03;5091994;28;20235;-71
2021/01/27 04:20:49;;;;;;;19.77;12.80;;;0.50;99.90;;;1.65;100.00;100203.25;5091791;28;20196;-72
2021/01/27 04:23:16;;;;;;;21.57;14.17;;;0.50;99.90;;;1.46;100.00;100206.16;5091133;28;20314;-71
2021/01/27 04:25:45;;;;;;;17.43;12.03;;;0.60;99.90;;;1.57;100.00;100208.53;5091755;28;20223;-72
2021/01/27 04:28:12;;;;;;;18.70;12.73;;;0.60;99.90;;;1.25;100.00;100198.66;5091497;28;20295;-73
2021/01/27 04:30:39;;;;;;;18.17;12.40;;;0.50;99.90;;;1.55;100.00;100197.25;5091619;28;20234;-73
2021/01/27 04:33:10;;;;;;;17.90;12.03;;;0.60;99.90;;;1.39;100.00;100198.03;5091827;28;20286;-73
2021/01/27 04:35:40;;;;;;;20.07;12.43;;;0.60;99.90;;;1.22;100.00;100197.13;5091703;28;20264;-73
2021/01/27 04:38:08;;;;;;;21.07;12.97;;;0.60;99.90;;;0.99;100.00;100198.69;5091462;28;20317;-72
2021/01/27 04:40:39;;;;;;;21.37;13.80;;;0.30;99.90;;;1.34;100.00;100195.03;5091693;28;20196;-73
2021/01/27 04:43:25;;;;;;;19.63;12.53;;;0.30;99.90;;;1.60;100.00;100197.59;5091450;28;20678;-72
2021/01/27 04:46:01;;;;;;;20.80;12.83;;;0.50;99.90;;;1.61;100.00;100186.00;5091572;28;20215;-74
2021/01/27 04:48:41;;;;;;;22.10;13.50;;;0.60;99.90;;;1.72;100.00;100186.53;5091581;28;20705;-69
2021/01/27 04:51:16;;;;;;;18.73;11.87;;;0.70;99.90;;;1.49;100.00;100180.16;5091527;28;20221;-68
2021/01/27 04:54:01;;;;;;;21.60;14.03;;;0.60;99.90;;;1.34;100.00;100175.63;5091653;28;20189;-70
2021/01/27 04:56:58;;;;;;;20.70;13.30;;;0.60;99.90;;;1.08;100.00;100179.16;5094268;28;20177;-72
2021/01/27 04:59:44;;;;;;;22.57;13.63;;;0.50;99.90;;;0.98;100.00;100172.34;5091458;28;20189;-73
2021/01/27 05:02:29;;;;;;;22.33;13.40;;;0.30;99.90;;;0.85;100.00;100172.75;5091670;28;20270;-77
2021/01/27 05:05:04;;;;;;;20.67;13.17;;;0.20;99.90;;;0.97;100.00;100162.69;5091632;28;20257;-74
2021/01/27 05:07:51;;;;;;;19.90;13.80;;;0.10;99.90;;;0.95;100.00;100154.91;5095025;28;20245;-72
2021/01/27 05:10:25;;;;;;;21.67;13.83;;;0.20;99.90;;;0.94;100.00;100158.56;5095081;28;20799;-70
2021/01/27 05:12:59;;;;;;;23.20;14.67;;;0.20;99.90;;;1.40;100.00;100153.75;5095398;28;20618;-73
2021/01/27 05:15:27;;;;;;;22.27;13.47;;;0.20;99.90;;;1.02;100.00;100150.63;5095185;28;20180;-76
2021/01/27 05:17:55;;;;;;;22.30;14.00;;;0.20;99.90;;;1.24;100.00;100154.53;5095326;28;20738;-71
2021/01/27 05:20:23;;;;;;;22.33;12.97;;;0.30;99.90;;;1.74;100.00;100150.00;5095562;28;20196;-72
2021/01/27 05:22:50;;;;;;;21.87;13.57;;;0.50;99.90;;;1.52;100.00;100139.19;5094218;28;20250;-72
2021/01/27 05:25:35;;;;;;;22.33;14.03;;;0.50;99.90;;;1.41;100.00;100140.31;5094911;28;20224;-68
2021/01/27 05:28:06;;;;;;;23.80;14.70;;;0.50;99.90;;;1.53;100.00;100151.47;5094867;28;20618;-72
2021/01/27 05:30:42;;;;;;;21.53;13.77;;;0.60;99.90;;;1.74;100.00;100135.91;5094838;28;20294;-74
2021/01/27 05:33:10;;;;;;;22.77;14.97;;;0.60;99.90;;;1.59;100.00;100143.69;5095027;28;20267;-71
2021/01/27 05:35:40;;;;;;;21.20;14.23;;;0.60;99.90;;;1.71;100.00;100131.75;5094761;28;20671;-72
2021/01/27 05:38:26;;;;;;;19.80;13.40;;;0.70;99.90;;;1.84;100.00;100136.59;5094796;28;20703;-72
2021/01/27 05:41:06;;;;;;;20.43;13.30;;;0.80;99.90;;;2.00;100.00;100128.63;5094981;28;20312;-69
2021/01/27 05:43:37;;;;;;;21.37;13.67;;;0.80;99.90;;;1.90;100.00;100143.91;5094990;28;20233;-73
2021/01/27 05:46:17;;;;;;;23.37;14.50;;;0.90;99.90;;;1.64;100.00;100141.38;5094742;28;20244;-73
2021/01/27 05:48:50;;;;;;;21.67;14.00;;;0.80;99.90;;;1.66;100.00;100144.69;5094505;28;20639;-75
2021/01/27 05:51:29;;;;;;;21.63;14.60;;;0.80;99.90;;;1.77;100.00;100143.56;5094867;28;20188;-71
2021/01/27 05:53:59;;;;;;;21.27;14.37;;;0.80;99.90;;;1.63;100.00;100145.03;5094823;28;20180;-74
2021/01/27 05:56:28;;;;;;;23.03;15.30;;;0.80;99.90;;;1.84;100.00;100150.72;5094423;28;20682;-73
2021/01/27 05:59:01;;;;;;;22.70;15.03;;;0.80;99.90;;;2.02;100.00;100148.72;5094379;28;20290;-73
2021/01/27 06:01:42;;;;;;;22.23;14.77;;;0.90;99.90;;;2.09;100.00;100143.56;5094484;28;20237;-74
2021/01/27 06:04:22;;;;;;;22.10;14.70;;;1.00;99.90;;;1.75;100.00;100145.53;5094216;28;20188;-74
2021/01/27 06:07:00;;;;;;;23.00;15.90;;;1.00;99.90;;;1.64;100.00;100145.88;5094091;28;20239;-72
2021/01/27 06:09:38;;;;;;;23.37;16.23;;;0.90;99.90;;;1.85;100.00;100152.38;5094568;28;20265;-74
2021/01/27 06:12:11;;;;;;;22.17;14.60;;;0.90;99.90;;;1.84;100.00;100136.59;5094248;28;20192;-75
2021/01/27 06:14:39;;;;;;;23.40;15.40;;;1.00;99.90;;;2.02;100.00;100147.88;5094381;28;20251;-69
2021/01/27 06:17:41;;;;;;;24.80;14.87;;;1.00;99.90;;;1.87;100.00;100142.41;5093423;28;20612;-69
2021/01/27 06:20:29;;;;;;;24.17;15.33;;;1.00;99.90;;;1.91;100.00;100145.56;5086564;28;20293;-72
2021/01/27 06:23:35;;;;;;;20.27;14.10;;;1.00;99.90;;;2.10;100.00;100148.72;5093698;28;20231;-74
2021/01/27 06:26:27;;;;;;;24.20;14.07;;;1.10;99.90;;;2.16;100.00;100148.06;5093816;28;20207;-74
2021/01/27 06:29:23;;;;;;;20.17;13.73;;;1.10;99.90;;;2.10;100.00;100151.38;5094083;28;20279;-73
2021/01/27 06:32:24;;;;;;;20.70;13.73;;;1.20;99.90;;;2.03;100.00;100149.56;5093511;28;20190;-70
2021/01/27 06:35:17;;;;;;;21.30;14.27;;;1.20;99.90;;;2.10;100.00;100134.59;5093548;28;20667;-69
2021/01/27 06:37:59;;;;;;;20.37;13.90;;;1.20;99.90;;;2.28;99.44;100138.75;5093436;28;20230;-74
2021/01/27 06:40:36;;;;;;;20.83;13.67;;;1.30;99.90;;;2.28;99.44;100136.09;5093826;28;20472;-73
2021/01/27 06:43:50;;;;;;;22.60;15.07;;;1.30;99.90;;;2.17;100.00;100136.44;5093809;28;20183;-74
2021/01/27 06:46:55;;;;;;;20.23;14.47;;;1.20;99.90;;;1.86;100.00;100138.06;5050619;28;20236;-73
2021/01/27 06:49:59;;;;;;;23.20;15.00;;;1.20;99.90;;;1.99;100.00;100142.91;5093048;28;20215;-73
2021/01/27 06:53:02;;;;;;;20.37;14.47;;;1.10;99.90;;;1.90;100.00;100146.56;5092991;28;20530;-73
2021/01/27 06:55:55;;;;;;;23.83;15.93;;;1.10;99.90;;;1.95;100.00;100149.53;5093183;28;20200;-69
2021/01/27 06:59:10;;;;;;;23.50;15.03;;;1.00;99.90;;;2.05;100.00;100143.06;5090607;28;20208;-69
2021/01/27 07:02:28;;;;;;;20.20;14.33;;;1.10;99.90;;;2.26;99.49;100137.28;5070042;28;20204;-76
2021/01/27 07:05:22;;;;;;;20.47;13.63;;;1.20;99.90;;;2.44;97.83;100143.22;5089711;28;20547;-77
2021/01/27 07:08:09;;;;;;;19.67;13.93;;;1.30;99.90;;;2.16;98.97;100142.75;5093293;28;20192;-75
2021/01/27 07:11:00;;;;;;;19.83;13.47;;;1.30;99.90;;;2.38;97.77;100150.03;5093559;28;20192;-72
2021/01/27 07:14:24;;;;;;;21.53;14.73;;;1.40;99.90;;;2.39;97.09;100145.56;5093823;28;20678;-76
2021/01/27 07:17:23;;;;;;;19.63;13.97;;;1.40;99.90;;;2.09;98.63;100147.06;5093464;28;20211;-77
2021/01/27 07:20:16;;;;;;;20.27;14.77;;;1.30;99.90;;;2.02;99.36;100147.88;5093611;28;20216;-77
2021/01/27 07:23:00;;;;;;;18.90;14.33;;;1.10;99.90;;;1.77;100.00;100140.91;5088418;28;20718;-78
2021/01/27 07:25:53;;;;;;;19.07;13.57;;;1.00;99.90;;;1.69;100.00;100141.69;5093687;28;20371;-75
2021/01/27 07:28:30;;;;;;;20.23;15.00;;;0.90;99.90;;;1.41;100.00;100142.97;5092494;28;20189;-75
2021/01/27 07:31:10;;;;;;;21.83;15.97;;;0.80;99.90;;;1.44;100.00;100153.25;5095357;28;20196;-75
2021/01/27 07:33:45;;;;;;;20.53;15.53;;;0.60;99.90;;;1.28;100.00;100150.56;5095628;28;20212;-75
2021/01/27 07:36:45;;;;;;;23.17;16.10;;;0.60;99.90;;;1.64;100.00;100148.53;5093472;28;20180;-75
2021/01/27 07:39:24;;;;;;;19.97;15.60;;;0.60;99.90;;;1.35;100.00;100146.28;5092809;28;20285;-75
2021/01/27 07:42:07;;;;;;;23.20;16.17;;;0.60;99.90;;;1.55;100.00;100144.19;5092585;28;20188;-74
2021/01/27 07:44:36;;;;;;;21.57;15.03;;;0.60;99.90;;;1.52;100.00;100141.84;5093108;28;20689;-74
2021/01/27 07:47:16;;;;;;;24.07;16.97;;;0.60;99.90;;;1.53;100.00;100149.66;5092430;28;20262;-74
2021/01/27 07:49:54;;;;;;;20.43;14.63;;;0.60;99.90;;;1.76;100.00;100147.22;5092716;28;20180;-70
2021/01/27 07:52:30;;;;;;;22.23;15.27;;;0.70;99.90;;;1.80;100.00;100144.06;5092775;28;20180;-72
2021/01/27 07:55:11;;;;;;;21.43;15.03;;;0.80;99.90;;;1.97;100.00;100142.25;5092269;28;20224;-72
2021/01/27 07:58:01;;;;;;;20.03;14.50;;;0.90;99.90;;;2.02;100.00;100140.75;5092381;28;20184;-70
2021/01/27 08:00:38;;;;;;;19.17;14.03;;;1.00;99.90;;;2.44;97.54;100129.94;5093171;28;20290;-72
2021/01/27 08:03:31;;;;;;;18.77;13.40;;;1.20;99.90;;;2.49;97.03;100136.41;5093343;28;20226;-71
2021/01/27 08:06:06;;;;;;;21.10;13.93;;;1.40;99.90;;;2.75;95.88;100130.03;5092841;28;20686;-73
2021/01/27 08:08:51;;;;;;;19.60;13.30;;;1.60;99.90;;;2.97;94.93;100131.97;5093031;28;20211;-71
2021/01/27 08:11:29;;;;;;;17.73;13.30;;;1.80;99.90;;;3.38;92.47;100136.94;5092413;28;20191;-70
2021/01/27 08:13:57;;;;;;;19.40;13.40;;;2.10;99.90;;;3.82;88.69;100137.19;5092872;28;20210;-71
2021/01/27 08:16:41;;;;;;;19.90;13.67;;;2.30;99.90;;;3.75;89.06;100131.72;5092199;28;20231;-71
2021/01/27 08:19:24;;;;;;;18.57;12.50;;;2.50;99.90;;;3.69;88.14;100129.78;5092524;28;20191;-71
2021/01/27 08:22:07;;;;;;;13.57;11.57;;;2.60;99.90;;;3.61;87.84;100139.66;5092033;28;20265;-70
2021/01/27 08:24:56;;;;;;;16.47;11.30;;;2.60;99.90;;;3.82;86.74;100126.53;5091087;28;20211;-72
2021/01/27 08:27:36;;;;;;;15.70;11.17;;;2.80;99.90;;;3.85;86.43;100117.34;5092404;28;20220;-74
2021/01/27 08:30:25;;;;;;;14.73;10.83;;;2.80;99.90;;;3.99;86.55;100120.06;5092035;28;20725;-75
2021/01/27 08:33:43;;;;;;;14.73;11.40;;;2.90;99.90;;;3.90;84.74;100121.16;5091877;28;20235;-67
2021/01/27 08:36:15;;;;;;;15.37;11.17;;;3.00;99.90;;;3.56;86.50;100118.88;5092494;28;20272;-71
2021/01/27 08:38:47;;;;;;;14.13;11.03;;;2.90;99.90;;;3.55;86.49;100113.72;5092500;28;20628;-72
2021/01/27 08:41:39;;;;;;;16.60;10.90;;;2.80;99.90;;;3.18;87.57;100114.41;5096277;28;20184;-72
2021/01/27 08:44:24;;;;;;;16.97;11.00;;;2.60;99.90;;;3.31;87.39;100114.69;5093198;28;20199;-69
2021/01/27 08:46:53;;;;;;;17.80;11.53;;;2.50;99.90;;;3.32;86.60;100113.69;5095847;28;20204;-70
2021/01/27 08:49:55;;;;;;;16.13;10.80;;;2.40;99.90;;;3.38;86.48;100112.97;5095613;28;20207;-71
2021/01/27 08:52:43;;;;;;;14.17;11.00;;;2.40;99.90;;;3.50;85.94;100105.44;5095291;28;20228;-68
2021/01/27 08:55:59;;;;;;;14.73;10.80;;;2.50;99.90;;;3.27;86.68;100109.88;5095857;28;20188;-68
2021/01/27 08:58:50;;;;;;;14.53;10.57;;;2.40;99.90;;;3.41;86.80;100103.81;5095894;28;20223;-69
2021/01/27 09:01:57;;;;;;;13.93;10.03;;;2.50;99.90;;;3.54;86.18;100110.22;5092622;28;21875;-69
2021/01/27 09:04:36;;;;;;;13.83;10.23;;;2.50;99.90;;;3.47;85.60;100114.59;5090500;28;20200;-70
2021/01/27 09:07:09;;;;;;;14.27;10.20;;;2.60;99.90;;;3.58;85.09;100113.38;5095230;28;20259;-71
2021/01/27 09:09:39;;;;;;;14.10;10.27;;;2.60;99.90;;;3.50;84.02;100106.25;5095451;28;20240;-71
2021/01/27 09:12:10;;;;;;;12.97;9.60;;;2.70;99.90;;;3.65;83.97;100103.69;5095555;28;20247;-72
2021/01/27 09:14:38;;;;;;;11.37;9.07;;;2.70;99.90;;;3.63;83.63;100101.19;5095595;28;20266;-70
2021/01/27 09:17:07;;;;;;;12.00;9.37;;;2.70;99.90;;;3.61;83.99;100103.19;5095698;28;20195;-70
2021/01/27 09:19:37;;;;;;;15.57;9.47;;;2.70;99.90;;;3.78;83.52;100108.41;5096007;28;20257;-68
2021/01/27 09:22:13;;;;;;;10.63;8.90;;;2.80;99.90;;;3.77;83.50;100112.91;5095143;28;20303;-70
2021/01/27 09:24:47;;;;;;;12.00;9.30;;;2.90;99.90;;;3.80;83.70;100112.56;5096069;28;20257;-69
2021/01/27 09:27:27;;;;;;;11.87;9.40;;;2.90;99.90;;;3.88;83.14;100101.84;5094761;28;20208;-71
2021/01/27 09:30:07;;;;;;;12.57;8.83;;;3.00;99.90;;;3.88;82.21;100101.00;5094867;28;20178;-72
2021/01/27 09:32:36;;;;;;;9.87;8.43;;;2.90;99.90;;;3.96;82.94;100100.97;5093709;28;20754;-68
2021/01/27 09:35:17;;;;;;;11.73;9.40;;;3.00;99.90;;;4.04;81.86;100106.22;5094414;28;20596;-67
2021/01/27 09:37:55;;;;;;;13.13;8.93;;;3.10;99.90;;;3.98;81.84;100109.56;5094450;28;20191;-69
2021/01/27 09:40:31;;;;;;;11.50;8.90;;;3.10;99.90;;;4.09;80.79;100103.84;5094464;28;20632;-71
2021/01/27 09:43:09;;;;;;;10.43;8.30;;;3.10;99.90;;;4.21;80.76;100105.06;5094799;28;20254;-71
2021/01/27 09:45:39;;;;;;;11.77;8.23;;;3.20;99.90;;;4.20;79.51;100101.56;5094161;28;20192;-74
2021/01/27 09:48:12;;;;;;;11.80;8.13;;;3.30;99.90;;;4.33;79.00;100092.97;5094788;28;20208;-73
2021/01/27 09:50:46;;;;;;;9.33;7.73;;;3.40;99.90;;;4.35;78.50;100099.75;5093558;28;20231;-73
2021/01/27 09:53:28;;;;;;;11.70;8.50;;;3.40;99.90;;;4.27;78.97;100099.84;5094132;28;20245;-71
2021/01/27 09:55:56;;;;;;;10.73;8.07;;;3.40;99.90;;;4.14;78.73;100086.31;5094985;28;20216;-77
2021/01/27 09:58:25;;;;;;;9.33;8.07;;;3.30;99.90;;;4.23;79.33;100090.53;5094578;28;20204;-79
2021/01/27 10:01:00;;;;;;;9.40;7.77;;;3.30;99.90;;;4.17;78.98;100083.28;5094324;28;20225;-80
2021/01/27 10:03:34;;;;;;;12.27;7.43;;;3.30;99.90;;;4.02;80.50;100085.09;5095620;28;20238;-79
2021/01/27 10:06:01;;;;;;;9.77;7.90;;;3.30;99.90;;;4.22;79.69;100080.91;5095386;28;20214;-72
2021/01/27 10:08:34;;;;;;;10.73;7.83;;;3.30;99.90;;;4.08;79.68;100081.69;5094318;28;20253;-78
2021/01/27 10:11:28;;;;;;;10.10;8.27;;;3.30;99.90;;;4.26;79.37;100070.69;5101744;28;20193;-80
2021/01/27 10:14:01;;;;;;;9.17;7.50;;;3.40;99.90;;;4.61;77.71;100070.00;5100344;28;20189;-76
2021/01/27 10:16:29;;;;;;;9.43;7.47;;;3.50;99.90;;;4.62;76.67;100074.31;5094080;28;20192;-70
2021/01/27 10:19:06;;;;;;;8.60;7.37;;;3.60;99.90;;;4.47;78.04;100063.63;5094252;28;20273;-77
2021/01/27 10:21:45;;;;;;;7.77;6.73;;;3.60;99.90;;;4.53;77.41;100065.56;5093678;28;20632;-79
2021/01/27 10:24:48;;;;;;;10.30;7.63;;;3.60;99.90;;;4.38;78.17;100061.25;5094373;28;20260;-79
2021/01/27 10:27:24;;;;;;;8.90;6.60;;;3.50;99.90;;;4.35;78.18;100058.94;5093877;28;20268;-75
2021/01/27 10:29:52;;;;;;;7.90;7.10;;;3.50;99.90;;;4.64;77.00;100054.44;5093804;28;20193;-78
2021/01/27 10:32:36;;;;;;;10.37;7.57;;;3.60;99.90;;;4.80;75.91;100048.09;5093939;28;20224;-71
2021/01/27 10:35:33;;;;;;;9.23;7.10;;;3.70;99.90;;;4.83;76.31;100043.22;5094128;28;20556;-78
2021/01/27 10:38:23;;;;;;;7.90;6.67;;;3.80;99.90;;;5.26;74.16;100028.13;5093671;28;20234;-74
2021/01/27 10:41:12;;;;;;;10.00;6.10;;;4.20;99.90;;;5.50;72.82;100033.09;5093606;28;20235;-75
2021/01/27 10:43:40;;;;;;;11.40;7.10;;;4.30;99.90;;;6.16;68.89;100015.81;5093391;28;20214;-77
2021/01/27 10:46:32;;;;;;;7.47;6.07;;;4.70;99.90;;;6.23;66.83;100019.38;5093287;28;20226;-80
2021/01/27 10:49:00;;;;;;;7.13;6.40;;;5.00;99.90;;;5.90;68.73;100019.13;5093937;28;20187;-75
2021/01/27 10:51:28;;;;;;;7.57;6.20;;;5.00;99.90;;;5.60;70.05;100020.25;5093579;28;20264;-67
2021/01/27 10:53:56;;;;;;;8.70;6.63;;;4.90;99.90;;;5.74;71.95;100015.84;5093334;28;20256;-67